sensor_id;sensor_type;location;lat;lon;timestamp;P1;durP1;ratioP1;P2;durP2;ratioP2
69769;SDS011;57282;52.514;13.458;2023-01-19T00:00:24;15.75;;;5.07;;
69769;SDS011;57282;52.514;13.458;2023-01-19T00:02:54;12.45;;;4.82;;
69769;SDS011;57282;52.514;13.458;2023-01-19T00:05:21;13.95;;;4.55;;
69769;SDS011;57282;52.514;13.458;2023-01-19T00:07:48;13.82;;;5.28;;
69769;SDS011;57282;52.514;13.458;2023-01-19T00:10:15;19.80;;;6.47;;
69769;SDS011;57282;52.514;13.458;2023-01-19T00:12:42;16.98;;;4.93;;
69769;SDS011;57282;52.514;13.458;2023-01-19T00:15:10;19.58;;;5.88;;
69769;SDS011;57282;52.514;13.458;2023-01-19T00:17:37;10.25;;;4.40;;
69769;SDS011;57282;52.514;13.458;2023-01-19T00:20:07;12.32;;;4.22;;
69769;SDS011;57282;52.514;13.458;2023-01-19T00:22:35;16.87;;;4.83;;
69769;SDS011;57282;52.514;13.458;2023-01-19T00:25:02;13.68;;;5.22;;
69769;SDS011;57282;52.514;13.458;2023-01-19T00:27:29;12.95;;;4.40;;
69769;SDS011;57282;52.514;13.458;2023-01-19T00:29:58;11.48;;;5.05;;
69769;SDS011;57282;52.514;13.458;2023-01-19T00:32:26;12.25;;;5.28;;
69769;SDS011;57282;52.514;13.458;2023-01-19T00:34:52;14.53;;;5.57;;
69769;SDS011;57282;52.514;13.458;2023-01-19T00:37:20;14.30;;;5.63;;
69769;SDS011;57282;52.514;13.458;2023-01-19T00:39:47;11.65;;;5.07;;
69769;SDS011;57282;52.514;13.458;2023-01-19T00:42:14;10.05;;;4.80;;
69769;SDS011;57282;52.514;13.458;2023-01-19T00:44:58;12.77;;;4.82;;
69769;SDS011;57282;52.514;13.458;2023-01-19T00:47:25;10.40;;;4.23;;
69769;SDS011;57282;52.514;13.458;2023-01-19T00:49:52;13.32;;;4.38;;
69769;SDS011;57282;52.514;13.458;2023-01-19T00:52:18;16.70;;;5.38;;
69769;SDS011;57282;52.514;13.458;2023-01-19T00:54:46;20.88;;;5.63;;
69769;SDS011;57282;52.514;13.458;2023-01-19T00:57:13;15.07;;;4.18;;
69769;SDS011;57282;52.514;13.458;2023-01-19T00:59:43;12.83;;;5.13;;
69769;SDS011;57282;52.514;13.458;2023-01-19T01:02:10;9.95;;;4.20;;
69769;SDS011;57282;52.514;13.458;2023-01-19T01:04:37;17.75;;;5.18;;
69769;SDS011;57282;52.514;13.458;2023-01-19T01:07:03;12.80;;;4.78;;
69769;SDS011;57282;52.514;13.458;2023-01-19T01:09:32;15.10;;;4.93;;
69769;SDS011;57282;52.514;13.458;2023-01-19T01:11:59;13.00;;;5.27;;
69769;SDS011;57282;52.514;13.458;2023-01-19T01:14:25;11.50;;;4.45;;
69769;SDS011;57282;52.514;13.458;2023-01-19T01:16:52;12.48;;;4.75;;
69769;SDS011;57282;52.514;13.458;2023-01-19T01:19:20;11.63;;;5.00;;
69769;SDS011;57282;52.514;13.458;2023-01-19T01:21:47;15.55;;;5.43;;
69769;SDS011;57282;52.514;13.458;2023-01-19T01:24:13;12.40;;;4.63;;
69769;SDS011;57282;52.514;13.458;2023-01-19T01:26:58;12.38;;;4.97;;
69769;SDS011;57282;52.514;13.458;2023-01-19T01:29:38;18.80;;;5.15;;
69769;SDS011;57282;52.514;13.458;2023-01-19T01:32:05;10.85;;;4.85;;
69769;SDS011;57282;52.514;13.458;2023-01-19T01:34:32;16.95;;;5.75;;
69769;SDS011;57282;52.514;13.458;2023-01-19T01:36:59;13.23;;;4.93;;
69769;SDS011;57282;52.514;13.458;2023-01-19T01:39:27;16.45;;;5.45;;
69769;SDS011;57282;52.514;13.458;2023-01-19T01:41:53;12.98;;;4.90;;
69769;SDS011;57282;52.514;13.458;2023-01-19T01:47:17;12.27;;;4.38;;
69769;SDS011;57282;52.514;13.458;2023-01-19T01:49:55;15.27;;;5.67;;
69769;SDS011;57282;52.514;13.458;2023-01-19T01:52:30;14.50;;;5.40;;
69769;SDS011;57282;52.514;13.458;2023-01-19T01:55:00;11.95;;;4.93;;
69769;SDS011;57282;52.514;13.458;2023-01-19T01:57:31;12.23;;;4.53;;
69769;SDS011;57282;52.514;13.458;2023-01-19T02:00:02;13.02;;;5.38;;
69769;SDS011;57282;52.514;13.458;2023-01-19T02:02:32;11.80;;;5.20;;
69769;SDS011;57282;52.514;13.458;2023-01-19T02:05:20;13.52;;;4.38;;
69769;SDS011;57282;52.514;13.458;2023-01-19T02:07:52;16.52;;;5.30;;
69769;SDS011;57282;52.514;13.458;2023-01-19T02:10:41;16.63;;;4.78;;
69769;SDS011;57282;52.514;13.458;2023-01-19T02:13:27;15.60;;;5.38;;
69769;SDS011;57282;52.514;13.458;2023-01-19T02:15:57;18.77;;;5.07;;
69769;SDS011;57282;52.514;13.458;2023-01-19T02:18:28;12.48;;;4.72;;
69769;SDS011;57282;52.514;13.458;2023-01-19T02:20:58;11.80;;;5.63;;
69769;SDS011;57282;52.514;13.458;2023-01-19T02:23:40;18.15;;;4.53;;
69769;SDS011;57282;52.514;13.458;2023-01-19T02:26:12;11.57;;;4.78;;
69769;SDS011;57282;52.514;13.458;2023-01-19T02:28:43;13.90;;;4.27;;
69769;SDS011;57282;52.514;13.458;2023-01-19T02:31:15;12.68;;;4.53;;
69769;SDS011;57282;52.514;13.458;2023-01-19T02:33:43;14.45;;;5.57;;
69769;SDS011;57282;52.514;13.458;2023-01-19T02:36:13;14.95;;;4.95;;
69769;SDS011;57282;52.514;13.458;2023-01-19T02:38:44;11.30;;;4.30;;
69769;SDS011;57282;52.514;13.458;2023-01-19T02:41:15;12.30;;;4.70;;
69769;SDS011;57282;52.514;13.458;2023-01-19T02:43:47;14.38;;;5.03;;
69769;SDS011;57282;52.514;13.458;2023-01-19T02:46:14;11.80;;;5.25;;
69769;SDS011;57282;52.514;13.458;2023-01-19T02:48:41;14.18;;;5.32;;
69769;SDS011;57282;52.514;13.458;2023-01-19T02:51:10;13.20;;;5.15;;
69769;SDS011;57282;52.514;13.458;2023-01-19T02:53:44;12.57;;;4.87;;
69769;SDS011;57282;52.514;13.458;2023-01-19T02:56:52;11.23;;;4.57;;
69769;SDS011;57282;52.514;13.458;2023-01-19T02:59:42;14.02;;;5.32;;
69769;SDS011;57282;52.514;13.458;2023-01-19T03:02:25;14.27;;;4.97;;
69769;SDS011;57282;52.514;13.458;2023-01-19T03:05:11;14.45;;;5.20;;
69769;SDS011;57282;52.514;13.458;2023-01-19T03:07:56;15.10;;;5.27;;
69769;SDS011;57282;52.514;13.458;2023-01-19T03:10:35;14.13;;;5.25;;
69769;SDS011;57282;52.514;13.458;2023-01-19T03:13:17;13.27;;;5.70;;
69769;SDS011;57282;52.514;13.458;2023-01-19T03:15:55;13.73;;;5.72;;
69769;SDS011;57282;52.514;13.458;2023-01-19T03:18:32;11.98;;;4.60;;
69769;SDS011;57282;52.514;13.458;2023-01-19T03:21:04;13.40;;;4.90;;
69769;SDS011;57282;52.514;13.458;2023-01-19T03:23:33;13.52;;;5.45;;
69769;SDS011;57282;52.514;13.458;2023-01-19T03:26:04;17.35;;;5.53;;
69769;SDS011;57282;52.514;13.458;2023-01-19T03:28:40;16.42;;;5.28;;
69769;SDS011;57282;52.514;13.458;2023-01-19T03:31:12;10.85;;;4.80;;
69769;SDS011;57282;52.514;13.458;2023-01-19T03:33:44;17.10;;;5.70;;
69769;SDS011;57282;52.514;13.458;2023-01-19T03:36:17;11.43;;;5.22;;
69769;SDS011;57282;52.514;13.458;2023-01-19T03:38:50;15.50;;;5.55;;
69769;SDS011;57282;52.514;13.458;2023-01-19T03:41:20;14.20;;;5.47;;
69769;SDS011;57282;52.514;13.458;2023-01-19T03:43:50;15.15;;;7.00;;
69769;SDS011;57282;52.514;13.458;2023-01-19T03:46:20;15.13;;;5.30;;
69769;SDS011;57282;52.514;13.458;2023-01-19T03:48:49;14.93;;;5.75;;
69769;SDS011;57282;52.514;13.458;2023-01-19T03:51:17;17.08;;;5.32;;
69769;SDS011;57282;52.514;13.458;2023-01-19T03:53:45;10.73;;;4.60;;
69769;SDS011;57282;52.514;13.458;2023-01-19T03:56:16;15.55;;;5.75;;
69769;SDS011;57282;52.514;13.458;2023-01-19T03:58:47;14.77;;;5.37;;
69769;SDS011;57282;52.514;13.458;2023-01-19T04:01:19;17.95;;;6.22;;
69769;SDS011;57282;52.514;13.458;2023-01-19T04:03:47;15.60;;;5.45;;
69769;SDS011;57282;52.514;13.458;2023-01-19T04:06:14;16.90;;;5.22;;
69769;SDS011;57282;52.514;13.458;2023-01-19T04:08:41;13.30;;;5.85;;
69769;SDS011;57282;52.514;13.458;2023-01-19T04:11:08;15.50;;;5.63;;
69769;SDS011;57282;52.514;13.458;2023-01-19T04:13:34;12.90;;;5.30;;
69769;SDS011;57282;52.514;13.458;2023-01-19T04:16:03;12.73;;;5.38;;
69769;SDS011;57282;52.514;13.458;2023-01-19T04:18:31;13.13;;;5.55;;
69769;SDS011;57282;52.514;13.458;2023-01-19T04:20:59;14.35;;;5.70;;
69769;SDS011;57282;52.514;13.458;2023-01-19T04:23:27;14.97;;;5.47;;
69769;SDS011;57282;52.514;13.458;2023-01-19T04:25:57;17.20;;;4.97;;
69769;SDS011;57282;52.514;13.458;2023-01-19T04:28:25;17.45;;;5.40;;
69769;SDS011;57282;52.514;13.458;2023-01-19T04:30:52;10.82;;;4.50;;
69769;SDS011;57282;52.514;13.458;2023-01-19T04:33:21;14.70;;;5.03;;
69769;SDS011;57282;52.514;13.458;2023-01-19T04:35:49;14.23;;;5.37;;
69769;SDS011;57282;52.514;13.458;2023-01-19T04:38:17;14.77;;;5.55;;
69769;SDS011;57282;52.514;13.458;2023-01-19T04:40:45;11.93;;;5.20;;
69769;SDS011;57282;52.514;13.458;2023-01-19T04:43:12;15.20;;;5.63;;
69769;SDS011;57282;52.514;13.458;2023-01-19T04:45:39;13.38;;;5.70;;
69769;SDS011;57282;52.514;13.458;2023-01-19T04:48:08;13.50;;;4.97;;
69769;SDS011;57282;52.514;13.458;2023-01-19T04:50:36;12.75;;;4.70;;
69769;SDS011;57282;52.514;13.458;2023-01-19T04:53:03;15.07;;;5.80;;
69769;SDS011;57282;52.514;13.458;2023-01-19T04:55:29;16.20;;;5.38;;
69769;SDS011;57282;52.514;13.458;2023-01-19T04:57:56;16.90;;;5.85;;
69769;SDS011;57282;52.514;13.458;2023-01-19T05:00:23;13.97;;;5.07;;
69769;SDS011;57282;52.514;13.458;2023-01-19T05:02:50;13.98;;;5.05;;
69769;SDS011;57282;52.514;13.458;2023-01-19T05:05:17;13.10;;;5.88;;
69769;SDS011;57282;52.514;13.458;2023-01-19T05:07:45;12.20;;;4.97;;
69769;SDS011;57282;52.514;13.458;2023-01-19T05:10:12;14.05;;;6.40;;
69769;SDS011;57282;52.514;13.458;2023-01-19T05:12:39;14.10;;;5.33;;
69769;SDS011;57282;52.514;13.458;2023-01-19T05:15:06;15.80;;;4.47;;
69769;SDS011;57282;52.514;13.458;2023-01-19T05:17:35;15.57;;;5.38;;
69769;SDS011;57282;52.514;13.458;2023-01-19T05:20:02;16.73;;;5.45;;
69769;SDS011;57282;52.514;13.458;2023-01-19T05:22:29;14.68;;;5.43;;
69769;SDS011;57282;52.514;13.458;2023-01-19T05:24:57;15.50;;;5.47;;
69769;SDS011;57282;52.514;13.458;2023-01-19T05:27:25;16.77;;;5.40;;
69769;SDS011;57282;52.514;13.458;2023-01-19T05:29:52;14.45;;;5.30;;
69769;SDS011;57282;52.514;13.458;2023-01-19T05:32:18;16.55;;;5.63;;
69769;SDS011;57282;52.514;13.458;2023-01-19T05:34:45;17.30;;;5.78;;
69769;SDS011;57282;52.514;13.458;2023-01-19T05:37:12;14.53;;;5.83;;
69769;SDS011;57282;52.514;13.458;2023-01-19T05:39:38;12.75;;;5.40;;
69769;SDS011;57282;52.514;13.458;2023-01-19T05:42:06;14.60;;;5.57;;
69769;SDS011;57282;52.514;13.458;2023-01-19T05:44:33;14.07;;;5.45;;
69769;SDS011;57282;52.514;13.458;2023-01-19T05:46:59;13.63;;;5.30;;
69769;SDS011;57282;52.514;13.458;2023-01-19T05:49:26;7.50;;;1.53;;
69769;SDS011;57282;52.514;13.458;2023-01-19T05:51:53;15.13;;;5.63;;
69769;SDS011;57282;52.514;13.458;2023-01-19T05:54:19;6.68;;;2.65;;
69769;SDS011;57282;52.514;13.458;2023-01-19T05:56:46;7.60;;;1.75;;
69769;SDS011;57282;52.514;13.458;2023-01-19T05:59:14;20.40;;;2.33;;
69769;SDS011;57282;52.514;13.458;2023-01-19T06:01:47;9.77;;;2.10;;
69769;SDS011;57282;52.514;13.458;2023-01-19T06:04:14;8.27;;;2.72;;
69769;SDS011;57282;52.514;13.458;2023-01-19T06:06:41;10.32;;;4.50;;
69769;SDS011;57282;52.514;13.458;2023-01-19T06:09:10;13.43;;;5.25;;
69769;SDS011;57282;52.514;13.458;2023-01-19T06:11:36;11.73;;;5.70;;
69769;SDS011;57282;52.514;13.458;2023-01-19T06:14:03;12.37;;;5.93;;
69769;SDS011;57282;52.514;13.458;2023-01-19T06:16:31;10.50;;;5.50;;
69769;SDS011;57282;52.514;13.458;2023-01-19T06:18:58;15.18;;;7.18;;
69769;SDS011;57282;52.514;13.458;2023-01-19T06:21:25;15.80;;;6.60;;
69769;SDS011;57282;52.514;13.458;2023-01-19T06:23:51;101.05;;;11.27;;
69769;SDS011;57282;52.514;13.458;2023-01-19T06:26:18;28.17;;;7.60;;
69769;SDS011;57282;52.514;13.458;2023-01-19T06:28:45;13.73;;;5.82;;
69769;SDS011;57282;52.514;13.458;2023-01-19T06:31:12;14.77;;;5.95;;
69769;SDS011;57282;52.514;13.458;2023-01-19T06:33:41;19.08;;;6.35;;
69769;SDS011;57282;52.514;13.458;2023-01-19T06:36:08;14.23;;;6.15;;
69769;SDS011;57282;52.514;13.458;2023-01-19T06:38:35;20.13;;;6.60;;
69769;SDS011;57282;52.514;13.458;2023-01-19T06:41:01;14.98;;;6.05;;
69769;SDS011;57282;52.514;13.458;2023-01-19T06:43:29;17.27;;;6.85;;
69769;SDS011;57282;52.514;13.458;2023-01-19T06:45:56;13.02;;;6.55;;
69769;SDS011;57282;52.514;13.458;2023-01-19T06:48:25;36.58;;;7.50;;
69769;SDS011;57282;52.514;13.458;2023-01-19T06:50:53;16.50;;;6.80;;
69769;SDS011;57282;52.514;13.458;2023-01-19T06:53:20;27.52;;;6.50;;
69769;SDS011;57282;52.514;13.458;2023-01-19T06:55:46;143.38;;;15.10;;
69769;SDS011;57282;52.514;13.458;2023-01-19T06:58:13;68.75;;;9.95;;
69769;SDS011;57282;52.514;13.458;2023-01-19T07:00:41;62.47;;;8.52;;
69769;SDS011;57282;52.514;13.458;2023-01-19T07:03:07;13.17;;;5.27;;
69769;SDS011;57282;52.514;13.458;2023-01-19T07:05:42;86.00;;;10.52;;
69769;SDS011;57282;52.514;13.458;2023-01-19T07:08:10;41.70;;;7.03;;
69769;SDS011;57282;52.514;13.458;2023-01-19T07:10:39;48.83;;;8.20;;
69769;SDS011;57282;52.514;13.458;2023-01-19T07:13:06;70.70;;;11.05;;
69769;SDS011;57282;52.514;13.458;2023-01-19T07:15:33;13.70;;;5.77;;
69769;SDS011;57282;52.514;13.458;2023-01-19T07:18:01;307.17;;;27.42;;
69769;SDS011;57282;52.514;13.458;2023-01-19T07:20:31;240.02;;;21.67;;
69769;SDS011;57282;52.514;13.458;2023-01-19T07:22:58;17.13;;;5.80;;
69769;SDS011;57282;52.514;13.458;2023-01-19T07:25:26;11.02;;;5.70;;
69769;SDS011;57282;52.514;13.458;2023-01-19T07:27:55;105.87;;;11.27;;
69769;SDS011;57282;52.514;13.458;2023-01-19T07:30:23;147.50;;;14.98;;
69769;SDS011;57282;52.514;13.458;2023-01-19T07:32:53;33.67;;;10.52;;
69769;SDS011;57282;52.514;13.458;2023-01-19T07:35:21;18.65;;;6.93;;
69769;SDS011;57282;52.514;13.458;2023-01-19T07:37:47;14.07;;;5.50;;
69769;SDS011;57282;52.514;13.458;2023-01-19T07:40:14;524.57;;;44.90;;
69769;SDS011;57282;52.514;13.458;2023-01-19T07:42:45;293.05;;;27.77;;
69769;SDS011;57282;52.514;13.458;2023-01-19T07:45:13;203.27;;;20.42;;
69769;SDS011;57282;52.514;13.458;2023-01-19T07:47:41;223.68;;;20.42;;
69769;SDS011;57282;52.514;13.458;2023-01-19T07:50:09;178.00;;;16.90;;
69769;SDS011;57282;52.514;13.458;2023-01-19T07:52:37;470.67;;;42.70;;
69769;SDS011;57282;52.514;13.458;2023-01-19T07:55:04;249.98;;;21.65;;
69769;SDS011;57282;52.514;13.458;2023-01-19T07:57:33;167.80;;;17.30;;
69769;SDS011;57282;52.514;13.458;2023-01-19T08:00:02;137.45;;;14.73;;
69769;SDS011;57282;52.514;13.458;2023-01-19T08:02:30;116.95;;;13.38;;
69769;SDS011;57282;52.514;13.458;2023-01-19T08:04:58;128.77;;;13.40;;
69769;SDS011;57282;52.514;13.458;2023-01-19T08:07:24;145.00;;;16.40;;
69769;SDS011;57282;52.514;13.458;2023-01-19T08:09:51;143.95;;;14.63;;
69769;SDS011;57282;52.514;13.458;2023-01-19T08:12:18;99.32;;;12.80;;
69769;SDS011;57282;52.514;13.458;2023-01-19T08:14:45;92.22;;;12.15;;
69769;SDS011;57282;52.514;13.458;2023-01-19T08:17:13;134.97;;;16.90;;
69769;SDS011;57282;52.514;13.458;2023-01-19T08:19:41;92.88;;;12.23;;
69769;SDS011;57282;52.514;13.458;2023-01-19T08:22:08;91.80;;;9.73;;
69769;SDS011;57282;52.514;13.458;2023-01-19T08:24:35;72.47;;;9.30;;
69769;SDS011;57282;52.514;13.458;2023-01-19T08:27:02;79.38;;;9.50;;
69769;SDS011;57282;52.514;13.458;2023-01-19T08:29:29;54.40;;;7.40;;
69769;SDS011;57282;52.514;13.458;2023-01-19T08:31:57;75.45;;;9.30;;
69769;SDS011;57282;52.514;13.458;2023-01-19T08:34:28;81.30;;;10.30;;
69769;SDS011;57282;52.514;13.458;2023-01-19T08:36:55;106.13;;;11.02;;
69769;SDS011;57282;52.514;13.458;2023-01-19T08:39:23;24.38;;;6.18;;
69769;SDS011;57282;52.514;13.458;2023-01-19T08:41:50;15.30;;;5.87;;
69769;SDS011;57282;52.514;13.458;2023-01-19T08:44:17;13.63;;;6.85;;
69769;SDS011;57282;52.514;13.458;2023-01-19T08:46:46;13.68;;;7.28;;
69769;SDS011;57282;52.514;13.458;2023-01-19T08:49:13;15.25;;;7.10;;
69769;SDS011;57282;52.514;13.458;2023-01-19T08:51:42;12.57;;;5.60;;
69769;SDS011;57282;52.514;13.458;2023-01-19T08:54:11;11.23;;;5.33;;
69769;SDS011;57282;52.514;13.458;2023-01-19T08:56:39;12.90;;;5.25;;
69769;SDS011;57282;52.514;13.458;2023-01-19T08:59:06;285.55;;;28.23;;
69769;SDS011;57282;52.514;13.458;2023-01-19T09:01:33;145.63;;;17.75;;
69769;SDS011;57282;52.514;13.458;2023-01-19T09:04:00;117.05;;;15.15;;
69769;SDS011;57282;52.514;13.458;2023-01-19T09:06:27;89.20;;;10.30;;
69769;SDS011;57282;52.514;13.458;2023-01-19T09:08:55;63.85;;;8.70;;
69769;SDS011;57282;52.514;13.458;2023-01-19T09:11:22;89.88;;;10.43;;
69769;SDS011;57282;52.514;13.458;2023-01-19T09:13:49;57.78;;;8.02;;
69769;SDS011;57282;52.514;13.458;2023-01-19T09:16:16;45.38;;;8.05;;
69769;SDS011;57282;52.514;13.458;2023-01-19T09:18:43;40.53;;;5.47;;
69769;SDS011;57282;52.514;13.458;2023-01-19T09:21:10;34.78;;;5.20;;
69769;SDS011;57282;52.514;13.458;2023-01-19T09:23:37;34.33;;;4.25;;
69769;SDS011;57282;52.514;13.458;2023-01-19T09:26:05;16.15;;;4.15;;
69769;SDS011;57282;52.514;13.458;2023-01-19T09:28:32;19.83;;;4.63;;
69769;SDS011;57282;52.514;13.458;2023-01-19T09:31:02;20.63;;;3.80;;
69769;SDS011;57282;52.514;13.458;2023-01-19T09:33:31;27.52;;;5.05;;
69769;SDS011;57282;52.514;13.458;2023-01-19T09:35:59;19.38;;;4.20;;
69769;SDS011;57282;52.514;13.458;2023-01-19T09:38:29;15.02;;;3.95;;
69769;SDS011;57282;52.514;13.458;2023-01-19T09:41:10;21.42;;;4.55;;
69769;SDS011;57282;52.514;13.458;2023-01-19T09:43:45;47.23;;;5.37;;
69769;SDS011;57282;52.514;13.458;2023-01-19T09:46:20;48.42;;;6.07;;
69769;SDS011;57282;52.514;13.458;2023-01-19T09:48:55;44.22;;;6.78;;
69769;SDS011;57282;52.514;13.458;2023-01-19T09:51:31;58.05;;;7.38;;
69769;SDS011;57282;52.514;13.458;2023-01-19T09:54:04;114.38;;;9.93;;
69769;SDS011;57282;52.514;13.458;2023-01-19T09:56:40;96.43;;;9.20;;
69769;SDS011;57282;52.514;13.458;2023-01-19T09:59:14;81.55;;;8.10;;
69769;SDS011;57282;52.514;13.458;2023-01-19T10:04:56;70.90;;;7.10;;
69769;SDS011;57282;52.514;13.458;2023-01-19T10:07:35;105.57;;;8.52;;
69769;SDS011;57282;52.514;13.458;2023-01-19T10:10:20;68.43;;;8.10;;
69769;SDS011;57282;52.514;13.458;2023-01-19T10:12:58;50.83;;;7.82;;
69769;SDS011;57282;52.514;13.458;2023-01-19T10:15:41;70.03;;;6.95;;
69769;SDS011;57282;52.514;13.458;2023-01-19T10:18:18;38.92;;;6.30;;
69769;SDS011;57282;52.514;13.458;2023-01-19T10:20:51;60.85;;;6.85;;
69769;SDS011;57282;52.514;13.458;2023-01-19T10:23:33;47.07;;;5.73;;
69769;SDS011;57282;52.514;13.458;2023-01-19T10:26:08;103.28;;;8.77;;
69769;SDS011;57282;52.514;13.458;2023-01-19T10:28:42;57.88;;;7.65;;
69769;SDS011;57282;52.514;13.458;2023-01-19T10:31:12;46.45;;;5.72;;
69769;SDS011;57282;52.514;13.458;2023-01-19T10:33:43;60.58;;;7.40;;
69769;SDS011;57282;52.514;13.458;2023-01-19T10:36:15;76.17;;;7.90;;
69769;SDS011;57282;52.514;13.458;2023-01-19T10:38:45;83.10;;;6.53;;
69769;SDS011;57282;52.514;13.458;2023-01-19T10:41:16;119.72;;;10.00;;
69769;SDS011;57282;52.514;13.458;2023-01-19T10:43:49;109.72;;;10.48;;
69769;SDS011;57282;52.514;13.458;2023-01-19T10:46:28;93.10;;;8.43;;
69769;SDS011;57282;52.514;13.458;2023-01-19T10:49:03;87.93;;;8.00;;
69769;SDS011;57282;52.514;13.458;2023-01-19T10:51:31;84.32;;;8.75;;
69769;SDS011;57282;52.514;13.458;2023-01-19T10:53:59;83.20;;;9.05;;
69769;SDS011;57282;52.514;13.458;2023-01-19T10:56:31;76.28;;;7.78;;
69769;SDS011;57282;52.514;13.458;2023-01-19T10:59:02;79.53;;;7.35;;
69769;SDS011;57282;52.514;13.458;2023-01-19T11:01:32;53.47;;;6.73;;
69769;SDS011;57282;52.514;13.458;2023-01-19T11:04:20;50.60;;;6.43;;
69769;SDS011;57282;52.514;13.458;2023-01-19T11:06:55;49.38;;;6.05;;
69769;SDS011;57282;52.514;13.458;2023-01-19T11:09:41;11.70;;;4.20;;
69769;SDS011;57282;52.514;13.458;2023-01-19T11:12:14;10.32;;;5.10;;
69769;SDS011;57282;52.514;13.458;2023-01-19T11:14:45;8.93;;;4.50;;
69769;SDS011;57282;52.514;13.458;2023-01-19T11:17:16;10.18;;;4.85;;
69769;SDS011;57282;52.514;13.458;2023-01-19T11:19:57;19.73;;;5.95;;
69769;SDS011;57282;52.514;13.458;2023-01-19T11:22:28;13.45;;;5.50;;
69769;SDS011;57282;52.514;13.458;2023-01-19T11:24:58;10.20;;;4.93;;
69769;SDS011;57282;52.514;13.458;2023-01-19T11:27:28;11.53;;;4.60;;
69769;SDS011;57282;52.514;13.458;2023-01-19T11:30:02;10.38;;;4.53;;
69769;SDS011;57282;52.514;13.458;2023-01-19T11:32:41;16.60;;;4.70;;
69769;SDS011;57282;52.514;13.458;2023-01-19T11:35:28;11.18;;;4.38;;
69769;SDS011;57282;52.514;13.458;2023-01-19T11:38:06;23.45;;;5.15;;
69769;SDS011;57282;52.514;13.458;2023-01-19T11:40:45;31.60;;;4.33;;
69769;SDS011;57282;52.514;13.458;2023-01-19T11:43:26;18.23;;;4.88;;
69769;SDS011;57282;52.514;13.458;2023-01-19T11:45:56;12.40;;;4.32;;
69769;SDS011;57282;52.514;13.458;2023-01-19T11:48:26;10.98;;;4.25;;
69769;SDS011;57282;52.514;13.458;2023-01-19T11:50:58;10.57;;;4.68;;
69769;SDS011;57282;52.514;13.458;2023-01-19T11:53:29;10.77;;;4.60;;
69769;SDS011;57282;52.514;13.458;2023-01-19T11:56:00;12.77;;;4.60;;
69769;SDS011;57282;52.514;13.458;2023-01-19T11:58:32;12.55;;;4.78;;
69769;SDS011;57282;52.514;13.458;2023-01-19T12:01:06;12.35;;;4.65;;
69769;SDS011;57282;52.514;13.458;2023-01-19T12:03:45;10.18;;;4.82;;
69769;SDS011;57282;52.514;13.458;2023-01-19T12:06:20;14.67;;;4.23;;
69769;SDS011;57282;52.514;13.458;2023-01-19T12:08:56;33.53;;;4.95;;
69769;SDS011;57282;52.514;13.458;2023-01-19T12:11:29;70.28;;;6.53;;
69769;SDS011;57282;52.514;13.458;2023-01-19T12:14:02;11.30;;;5.25;;
69769;SDS011;57282;52.514;13.458;2023-01-19T12:16:35;36.85;;;4.90;;
69769;SDS011;57282;52.514;13.458;2023-01-19T12:19:10;11.03;;;4.20;;
69769;SDS011;57282;52.514;13.458;2023-01-19T12:21:43;17.77;;;4.63;;
69769;SDS011;57282;52.514;13.458;2023-01-19T12:24:13;65.82;;;6.05;;
69769;SDS011;57282;52.514;13.458;2023-01-19T12:26:50;13.38;;;4.15;;
69769;SDS011;57282;52.514;13.458;2023-01-19T12:29:22;10.55;;;4.75;;
69769;SDS011;57282;52.514;13.458;2023-01-19T12:34:58;77.32;;;6.15;;
69769;SDS011;57282;52.514;13.458;2023-01-19T12:37:30;73.75;;;5.65;;
69769;SDS011;57282;52.514;13.458;2023-01-19T12:40:03;70.07;;;7.55;;
69769;SDS011;57282;52.514;13.458;2023-01-19T12:42:52;64.28;;;6.78;;
69769;SDS011;57282;52.514;13.458;2023-01-19T12:45:28;52.77;;;5.37;;
69769;SDS011;57282;52.514;13.458;2023-01-19T12:47:59;75.95;;;7.18;;
69769;SDS011;57282;52.514;13.458;2023-01-19T12:50:30;44.10;;;7.05;;
69769;SDS011;57282;52.514;13.458;2023-01-19T12:53:02;33.70;;;5.03;;
69769;SDS011;57282;52.514;13.458;2023-01-19T12:55:32;27.95;;;5.60;;
69769;SDS011;57282;52.514;13.458;2023-01-19T12:58:03;39.00;;;4.77;;
69769;SDS011;57282;52.514;13.458;2023-01-19T13:00:38;32.10;;;4.30;;
69769;SDS011;57282;52.514;13.458;2023-01-19T13:09:34;32.65;;;5.22;;
69769;SDS011;57282;52.514;13.458;2023-01-19T13:12:09;30.20;;;4.47;;
69769;SDS011;57282;52.514;13.458;2023-01-19T13:14:46;20.80;;;4.97;;
69769;SDS011;57282;52.514;13.458;2023-01-19T13:17:24;15.57;;;6.72;;
69769;SDS011;57282;52.514;13.458;2023-01-19T13:20:02;14.75;;;7.28;;
69769;SDS011;57282;52.514;13.458;2023-01-19T13:22:48;12.13;;;6.57;;
69769;SDS011;57282;52.514;13.458;2023-01-19T13:25:46;16.70;;;9.13;;
69769;SDS011;57282;52.514;13.458;2023-01-19T13:28:22;13.05;;;6.55;;
69769;SDS011;57282;52.514;13.458;2023-01-19T13:30:58;13.75;;;6.20;;
69769;SDS011;57282;52.514;13.458;2023-01-19T13:33:28;12.27;;;5.20;;
69769;SDS011;57282;52.514;13.458;2023-01-19T13:36:05;11.30;;;5.38;;
69769;SDS011;57282;52.514;13.458;2023-01-19T13:38:46;13.90;;;5.13;;
69769;SDS011;57282;52.514;13.458;2023-01-19T13:41:15;14.50;;;5.25;;
69769;SDS011;57282;52.514;13.458;2023-01-19T13:43:46;25.55;;;4.55;;
69769;SDS011;57282;52.514;13.458;2023-01-19T13:46:17;18.10;;;5.43;;
69769;SDS011;57282;52.514;13.458;2023-01-19T13:48:51;15.63;;;5.43;;
69769;SDS011;57282;52.514;13.458;2023-01-19T13:51:23;16.67;;;5.97;;
69769;SDS011;57282;52.514;13.458;2023-01-19T13:53:54;14.90;;;4.60;;
69769;SDS011;57282;52.514;13.458;2023-01-19T13:56:22;16.15;;;4.75;;
69769;SDS011;57282;52.514;13.458;2023-01-19T13:58:56;20.95;;;6.30;;
69769;SDS011;57282;52.514;13.458;2023-01-19T14:01:31;22.13;;;3.50;;
69769;SDS011;57282;52.514;13.458;2023-01-19T14:03:57;34.53;;;4.30;;
69769;SDS011;57282;52.514;13.458;2023-01-19T14:06:32;37.35;;;4.65;;
69769;SDS011;57282;52.514;13.458;2023-01-19T14:09:06;35.30;;;5.38;;
69769;SDS011;57282;52.514;13.458;2023-01-19T14:11:40;44.70;;;4.68;;
69769;SDS011;57282;52.514;13.458;2023-01-19T14:14:20;34.35;;;5.00;;
69769;SDS011;57282;52.514;13.458;2023-01-19T14:16:49;25.73;;;5.23;;
69769;SDS011;57282;52.514;13.458;2023-01-19T14:19:15;26.30;;;3.47;;
69769;SDS011;57282;52.514;13.458;2023-01-19T14:21:43;15.88;;;3.70;;
69769;SDS011;57282;52.514;13.458;2023-01-19T14:24:14;14.65;;;4.95;;
69769;SDS011;57282;52.514;13.458;2023-01-19T14:26:47;15.43;;;4.45;;
69769;SDS011;57282;52.514;13.458;2023-01-19T14:29:17;10.83;;;5.13;;
69769;SDS011;57282;52.514;13.458;2023-01-19T14:31:51;13.98;;;6.32;;
69769;SDS011;57282;52.514;13.458;2023-01-19T14:34:38;11.80;;;6.65;;
69769;SDS011;57282;52.514;13.458;2023-01-19T14:39:59;12.43;;;6.45;;
69769;SDS011;57282;52.514;13.458;2023-01-19T14:42:29;12.30;;;5.90;;
69769;SDS011;57282;52.514;13.458;2023-01-19T14:45:02;14.68;;;6.00;;
69769;SDS011;57282;52.514;13.458;2023-01-19T14:47:39;12.43;;;7.05;;
69769;SDS011;57282;52.514;13.458;2023-01-19T14:50:17;14.82;;;7.60;;
69769;SDS011;57282;52.514;13.458;2023-01-19T14:52:51;11.55;;;5.75;;
69769;SDS011;57282;52.514;13.458;2023-01-19T14:55:24;14.17;;;6.20;;
69769;SDS011;57282;52.514;13.458;2023-01-19T14:58:09;14.73;;;6.57;;